aviador You're here:

BIRK Decoded Metar

REYKJAVIK in ICELAND
Report Time2017-10-20 12:00:00
UTC Time2017-10-20 12:25:13
Flight Rules mvfr MVFR
Wind210° at 13 kt
W.Decomp.*RWY 24: 12.6 kt HW 3.4 kt LCW
RWY 19: 10.6 kt HW 7.5 kt RCW
RWY 31: 1.1 kt HW 13 kt LCW
W.Rank210° ranks 15
Current wind is above 210° avg. (10.5)
Visibility9999 m
Phenomena:N/A
Clouds:Scattered 007 Hf
Broken 014 Hf
Overcast 018 Hf
Expected CloudBase > 800 ft AGL from Temp-Dew spread
Ceiling1,400 ft
Temp06°C (ISA -9)
Dew Point04°C (87% RH)
AAT0.0°C
QNH0994 hPa
Density Alt-75 ft
Elevation200 ft
Report Wrong Elevation
Raw Report
BIRK 201200Z 21013KT 9999 SCT007 BKN014 OVC018 06/04 Q0994
RERA=

Extra information for BIRK:More info

Metar Taf Metar & Taf Last 4 Metars F.Rules Stats Wind Profile Meteogram Temp Stats Airport Information Weather charts Add Link Nearby VenuesMetar ALERT Operation Metar Decoded Social comments